createdAt,value
2023-12-09T00:03:45.972Z,18.05
2023-12-09T00:07:50.342Z,20.13
2023-12-09T00:11:56.753Z,17.92
2023-12-09T00:16:01.367Z,19.80
2023-12-09T00:20:07.164Z,17.73
2023-12-09T00:24:11.995Z,17.25
2023-12-09T00:28:18.396Z,18.77
2023-12-09T00:32:23.680Z,18.88
2023-12-09T00:36:28.761Z,16.75
2023-12-09T00:40:34.890Z,18.08
2023-12-09T00:44:41.334Z,17.63
2023-12-09T00:48:46.383Z,17.80
2023-12-09T00:52:50.899Z,17.27
2023-12-09T00:56:56.815Z,20.40
2023-12-09T01:01:02.961Z,17.95
2023-12-09T01:05:08.858Z,15.40
2023-12-09T01:09:13.789Z,16.75
2023-12-09T01:13:18.426Z,17.77
2023-12-09T01:17:24.965Z,15.82
2023-12-09T01:21:29.415Z,19.17
2023-12-09T01:25:33.709Z,16.00
2023-12-09T01:29:40.612Z,16.70
2023-12-09T01:33:47.610Z,18.50
2023-12-09T01:37:52.522Z,18.42
2023-12-09T01:41:57.735Z,16.90
2023-12-09T01:46:09.089Z,16.88
2023-12-09T01:50:15.914Z,16.48
2023-12-09T01:54:20.950Z,16.40
2023-12-09T01:58:26.028Z,19.13
2023-12-09T02:02:31.141Z,19.58
2023-12-09T02:06:38.250Z,19.15
2023-12-09T02:10:43.644Z,18.38
2023-12-09T02:14:58.160Z,17.95
2023-12-09T02:19:07.423Z,16.48
2023-12-09T02:23:14.656Z,20.52
2023-12-09T02:27:24.696Z,19.40
2023-12-09T02:31:32.973Z,19.30
2023-12-09T02:35:42.705Z,17.00
2023-12-09T02:39:49.579Z,18.83
2023-12-09T02:43:54.144Z,20.27
2023-12-09T02:47:58.612Z,17.20
2023-12-09T02:52:03.275Z,18.55
2023-12-09T02:56:10.878Z,20.85
2023-12-09T03:00:15.791Z,16.52
2023-12-09T03:04:20.809Z,18.35
2023-12-09T03:08:25.698Z,17.55
2023-12-09T03:12:32.451Z,17.50
2023-12-09T03:16:40.157Z,15.45
2023-12-09T03:20:44.835Z,17.13
2023-12-09T03:24:52.024Z,18.05
2023-12-09T03:28:58.380Z,18.05
2023-12-09T03:33:03.299Z,17.00
2023-12-09T03:37:08.079Z,18.13
2023-12-09T03:41:12.610Z,17.80
2023-12-09T03:45:18.894Z,16.67
2023-12-09T03:49:24.190Z,17.00
2023-12-09T03:53:29.265Z,17.67
2023-12-09T03:57:32.845Z,20.15
2023-12-09T04:01:37.546Z,17.88
2023-12-09T04:05:40.929Z,19.35
2023-12-09T04:09:47.392Z,19.75
2023-12-09T04:13:50.747Z,19.55
2023-12-09T04:17:55.476Z,20.05
2023-12-09T04:21:58.848Z,20.85
2023-12-09T04:26:02.004Z,19.92
2023-12-09T04:30:06.119Z,22.23
2023-12-09T04:34:10.972Z,17.92
2023-12-09T04:38:14.118Z,19.08
2023-12-09T04:42:17.363Z,20.38
2023-12-09T04:46:20.865Z,17.73
2023-12-09T04:50:25.670Z,21.98
2023-12-09T04:54:29.006Z,19.45
2023-12-09T04:58:32.127Z,19.38
2023-12-09T05:02:35.368Z,20.70
2023-12-09T05:06:39.966Z,22.08
2023-12-09T05:10:43.047Z,18.15
2023-12-09T05:14:46.244Z,19.42
2023-12-09T05:18:49.507Z,19.67
2023-12-09T05:22:54.239Z,19.13
2023-12-09T05:26:58.953Z,19.92
2023-12-09T05:31:02.404Z,20.67
2023-12-09T05:35:06.057Z,20.45
2023-12-09T05:39:10.893Z,19.92
2023-12-09T05:43:14.250Z,20.75
2023-12-09T05:47:17.516Z,18.25
2023-12-09T05:51:20.772Z,20.15
2023-12-09T05:55:25.790Z,21.45
2023-12-09T05:59:29.167Z,22.08
2023-12-09T06:03:32.565Z,21.23
2023-12-09T06:07:36.032Z,21.05
2023-12-09T06:11:40.605Z,19.65
2023-12-09T06:15:44.047Z,21.40
2023-12-09T06:19:47.176Z,19.67
2023-12-09T06:23:50.552Z,21.05
2023-12-09T06:27:55.009Z,20.55
2023-12-09T06:31:58.416Z,21.30
2023-12-09T06:36:01.892Z,20.98
2023-12-09T06:40:05.727Z,21.45
2023-12-09T06:44:10.692Z,22.40
2023-12-09T06:48:13.920Z,20.80
2023-12-09T06:52:17.512Z,20.05
2023-12-09T06:56:21.158Z,20.80
2023-12-09T07:00:26.658Z,24.60
2023-12-09T07:04:29.922Z,21.52
2023-12-09T07:08:33.086Z,17.65
2023-12-09T07:12:36.289Z,20.30
2023-12-09T07:16:41.239Z,22.52
2023-12-09T07:20:45.014Z,18.13
2023-12-09T07:24:48.273Z,18.92
2023-12-09T07:28:51.443Z,18.58
2023-12-09T07:32:56.130Z,19.88
2023-12-09T07:36:59.393Z,18.83
2023-12-09T07:41:02.762Z,19.73
2023-12-09T07:45:07.176Z,22.48
2023-12-09T07:49:11.739Z,19.88
2023-12-09T07:53:14.923Z,19.90
2023-12-09T07:57:18.609Z,19.80
2023-12-09T08:01:21.860Z,21.90
2023-12-09T08:05:27.708Z,17.77
2023-12-09T08:09:31.347Z,19.25
2023-12-09T08:13:35.192Z,19.52
2023-12-09T08:17:38.411Z,19.30
2023-12-09T08:21:43.147Z,21.45
2023-12-09T08:25:46.468Z,22.02
2023-12-09T08:29:49.699Z,18.65
2023-12-09T08:33:52.857Z,22.33
2023-12-09T08:37:57.412Z,21.98
2023-12-09T08:42:00.488Z,20.10
2023-12-09T08:46:03.596Z,21.75
2023-12-09T08:50:21.307Z,21.73
2023-12-09T08:54:28.456Z,21.58
2023-12-09T08:58:31.563Z,21.90
2023-12-09T09:02:35.453Z,23.98
2023-12-09T09:06:39.425Z,21.05
2023-12-09T09:10:44.936Z,19.98
2023-12-09T09:14:49.120Z,20.20
2023-12-09T09:18:52.967Z,21.70
2023-12-09T09:22:56.875Z,23.45
2023-12-09T09:27:01.519Z,22.17
2023-12-09T09:31:05.507Z,21.65
2023-12-09T09:35:10.596Z,20.90
2023-12-09T09:39:14.318Z,21.30
2023-12-09T09:43:23.287Z,18.58
2023-12-09T09:47:27.013Z,20.88
2023-12-09T09:51:33.221Z,19.58
2023-12-09T09:55:37.459Z,20.92
2023-12-09T09:59:42.425Z,18.42
2023-12-09T10:03:45.864Z,18.48
2023-12-09T10:07:49.372Z,18.45
2023-12-09T10:11:52.550Z,20.38
2023-12-09T10:15:57.055Z,17.85
2023-12-09T10:20:00.875Z,21.67
2023-12-09T10:24:06.543Z,19.67
2023-12-09T10:28:11.989Z,19.35
2023-12-09T10:32:16.747Z,19.35
2023-12-09T10:36:20.202Z,18.67
2023-12-09T10:40:26.167Z,18.20
2023-12-09T10:44:30.582Z,18.42
2023-12-09T10:48:35.222Z,17.77
2023-12-09T10:52:39.949Z,18.73
2023-12-09T10:56:43.042Z,19.83
2023-12-09T11:00:48.055Z,17.85
2023-12-09T11:04:54.036Z,17.23
2023-12-09T11:08:57.624Z,18.40
2023-12-09T11:13:01.605Z,18.63
2023-12-09T11:17:06.373Z,17.83
2023-12-09T11:21:10.971Z,17.65
2023-12-09T11:25:25.563Z,19.85
2023-12-09T11:29:29.347Z,20.08
2023-12-09T11:33:34.414Z,18.58
2023-12-09T11:37:39.459Z,19.20
2023-12-09T11:41:43.795Z,19.92
2023-12-09T11:45:48.092Z,19.58
2023-12-09T11:49:52.056Z,19.65
2023-12-09T11:53:57.992Z,21.45
2023-12-09T11:58:01.235Z,19.75
2023-12-09T12:02:05.126Z,19.35
2023-12-09T12:06:12.877Z,21.95
2023-12-09T12:10:19.557Z,19.80
2023-12-09T12:14:23.113Z,19.98
2023-12-09T12:18:26.877Z,22.13
2023-12-09T12:22:30.411Z,18.75
2023-12-09T12:26:35.410Z,18.58
2023-12-09T12:30:41.143Z,17.10
2023-12-09T12:34:47.289Z,16.95
2023-12-09T12:38:53.559Z,17.77
2023-12-09T12:42:58.185Z,19.00
2023-12-09T12:47:01.711Z,17.83
2023-12-09T12:51:05.516Z,18.08
2023-12-09T12:55:10.488Z,19.67
2023-12-09T12:59:18.362Z,18.75
2023-12-09T13:03:22.183Z,20.98
2023-12-09T13:07:26.925Z,19.48
2023-12-09T13:11:33.054Z,20.73
2023-12-09T13:15:39.218Z,17.92
2023-12-09T13:19:43.933Z,17.17
2023-12-09T13:23:48.813Z,16.88
2023-12-09T13:27:53.784Z,16.55
2023-12-09T13:32:03.863Z,19.02
2023-12-09T13:36:11.450Z,16.65
2023-12-09T13:40:16.492Z,17.60
2023-12-09T13:44:21.129Z,19.13
2023-12-09T13:48:27.326Z,17.77
2023-12-09T13:52:33.979Z,18.15
2023-12-09T13:56:40.688Z,18.77
2023-12-09T14:00:46.060Z,19.23
2023-12-09T14:04:52.264Z,19.40
2023-12-09T14:08:56.786Z,20.30
2023-12-09T14:13:01.548Z,19.38
2023-12-09T14:17:07.018Z,17.75
2023-12-09T14:21:14.676Z,19.42
2023-12-09T14:25:19.750Z,20.52
2023-12-09T14:29:24.432Z,18.38
2023-12-09T14:33:29.364Z,16.83
2023-12-09T14:37:35.537Z,18.05
2023-12-09T14:41:42.067Z,18.77
2023-12-09T14:45:47.024Z,19.27
2023-12-09T14:49:51.879Z,21.58
2023-12-09T14:53:58.463Z,19.25
2023-12-09T14:58:02.692Z,19.08
2023-12-09T15:02:07.436Z,19.23
2023-12-09T15:06:13.094Z,17.38
2023-12-09T15:10:23.816Z,20.92
2023-12-09T15:14:28.301Z,20.88
2023-12-09T15:18:33.062Z,19.15
2023-12-09T15:22:37.849Z,18.63
2023-12-09T15:26:44.508Z,18.10
2023-12-09T15:30:50.416Z,18.92
2023-12-09T15:34:55.675Z,19.48
2023-12-09T15:39:00.828Z,20.02
2023-12-09T15:43:10.078Z,19.38
2023-12-09T15:47:14.967Z,20.40
2023-12-09T15:51:19.652Z,20.95
2023-12-09T15:55:24.383Z,20.80
2023-12-09T15:59:33.559Z,21.40
2023-12-09T16:03:38.648Z,21.63
2023-12-09T16:07:44.724Z,20.58
2023-12-09T16:11:50.045Z,23.40
2023-12-09T16:15:57.825Z,19.33
2023-12-09T16:20:03.816Z,22.15
2023-12-09T16:24:11.569Z,17.92
2023-12-09T16:28:16.696Z,19.45
2023-12-09T16:32:23.592Z,17.95
2023-12-09T16:36:28.535Z,15.05
2023-12-09T16:40:35.307Z,19.80
2023-12-09T16:44:40.537Z,15.65
2023-12-09T16:48:47.196Z,16.15
2023-12-09T16:52:51.845Z,15.38
2023-12-09T16:56:56.625Z,15.75
2023-12-09T17:01:01.919Z,18.52
2023-12-09T17:05:11.943Z,17.52
2023-12-09T17:09:17.429Z,16.42
2023-12-09T17:13:22.043Z,18.25
2023-12-09T17:17:26.978Z,18.35
2023-12-09T17:21:33.382Z,18.30
2023-12-09T17:25:38.974Z,15.90
2023-12-09T17:29:45.876Z,15.10
2023-12-09T17:33:50.980Z,13.43
2023-12-09T17:37:57.045Z,15.13
2023-12-09T17:42:01.909Z,13.40
2023-12-09T17:46:09.416Z,17.33
2023-12-09T17:50:13.860Z,16.13
2023-12-09T17:54:22.113Z,15.65
2023-12-09T17:58:25.538Z,14.45
2023-12-09T18:02:28.916Z,12.40
2023-12-09T18:06:32.543Z,13.88
2023-12-09T18:10:37.439Z,14.30
2023-12-09T18:14:40.998Z,13.88
2023-12-09T18:18:44.275Z,11.95
2023-12-09T18:22:47.526Z,15.05
2023-12-09T18:26:52.149Z,15.57
2023-12-09T18:30:56.159Z,13.90
2023-12-09T18:34:59.272Z,14.02
2023-12-09T18:39:02.692Z,14.98
2023-12-09T18:43:07.276Z,14.52
2023-12-09T18:47:10.421Z,13.10
2023-12-09T18:51:13.983Z,10.80
2023-12-09T18:55:17.300Z,13.63
2023-12-09T18:59:22.138Z,13.05
2023-12-09T19:03:26.509Z,13.88
2023-12-09T19:07:29.828Z,14.43
2023-12-09T19:11:33.217Z,12.50
2023-12-09T19:15:39.034Z,11.68
2023-12-09T19:19:43.632Z,11.40
2023-12-09T19:23:48.274Z,11.40
2023-12-09T19:27:51.497Z,14.65
2023-12-09T19:31:56.941Z,11.48
2023-12-09T19:36:00.300Z,13.75
2023-12-09T19:40:03.973Z,11.30
2023-12-09T19:44:07.666Z,13.02
2023-12-09T19:48:13.125Z,9.98
2023-12-09T19:52:16.423Z,12.43
2023-12-09T19:56:19.864Z,10.45
2023-12-09T20:00:24.322Z,10.27
2023-12-09T20:04:31.802Z,13.02
2023-12-09T20:08:34.992Z,11.73
2023-12-09T20:12:38.431Z,11.45
2023-12-09T20:16:42.105Z,11.88
2023-12-09T20:20:47.081Z,10.77
2023-12-09T20:24:50.247Z,9.48
2023-12-09T20:28:54.725Z,9.75
2023-12-09T20:32:57.982Z,9.43
2023-12-09T20:37:04.175Z,8.85
2023-12-09T20:41:07.815Z,9.40
2023-12-09T20:45:12.493Z,9.77
2023-12-09T20:49:18.325Z,10.18
2023-12-09T20:53:23.059Z,9.02
2023-12-09T20:57:26.194Z,8.57
2023-12-09T21:01:29.985Z,8.77
2023-12-09T21:05:36.260Z,8.60
2023-12-09T21:09:41.299Z,10.10
2023-12-09T21:13:44.597Z,8.40
2023-12-09T21:17:47.937Z,9.30
2023-12-09T21:21:51.285Z,9.52
2023-12-09T21:25:56.624Z,9.40
2023-12-09T21:30:01.164Z,8.27
2023-12-09T21:34:04.775Z,8.30
2023-12-09T21:38:08.273Z,8.57
2023-12-09T21:42:13.144Z,9.02
2023-12-09T21:46:21.008Z,10.13
2023-12-09T21:50:26.461Z,9.23
2023-12-09T21:54:30.620Z,7.97
2023-12-09T21:58:37.858Z,9.82
2023-12-09T22:02:42.062Z,8.70
2023-12-09T22:06:47.098Z,8.73
2023-12-09T22:10:51.224Z,8.73
2023-12-09T22:14:56.905Z,10.90
2023-12-09T22:19:00.836Z,10.00
2023-12-09T22:23:04.956Z,9.95
2023-12-09T22:27:09.150Z,8.45
2023-12-09T22:31:15.262Z,9.70
2023-12-09T22:35:19.132Z,10.43
2023-12-09T22:39:23.066Z,11.02
2023-12-09T22:43:26.288Z,10.68
2023-12-09T22:47:30.962Z,12.57
2023-12-09T22:51:34.274Z,9.73
2023-12-09T22:55:40.354Z,11.45
2023-12-09T22:59:45.489Z,8.73
2023-12-09T23:03:50.483Z,10.20
2023-12-09T23:07:53.791Z,11.35
2023-12-09T23:11:57.500Z,9.15
2023-12-09T23:16:00.986Z,10.77
2023-12-09T23:20:07.081Z,10.80
2023-12-09T23:24:10.295Z,12.40
2023-12-09T23:28:13.910Z,10.25
2023-12-09T23:32:17.186Z,11.30
2023-12-09T23:36:22.081Z,9.93
2023-12-09T23:40:25.244Z,10.40
2023-12-09T23:44:28.449Z,11.13
2023-12-09T23:48:31.788Z,10.68
2023-12-09T23:52:36.710Z,10.98
2023-12-09T23:56:39.840Z,11.77
